createdAt,value
2018-11-12T00:01:08.048Z,39.90
2018-11-12T00:03:40.358Z,37.70
2018-11-12T00:06:10.921Z,39.77
2018-11-12T00:08:40.765Z,39.57
2018-11-12T00:11:10.872Z,38.13
2018-11-12T00:13:40.550Z,39.93
2018-11-12T00:16:13.285Z,37.70
2018-11-12T00:18:43.181Z,38.37
2018-11-12T00:21:14.166Z,40.07
2018-11-12T00:23:44.835Z,39.33
2018-11-12T00:26:15.150Z,37.30
2018-11-12T00:28:45.911Z,74.20
2018-11-12T00:31:18.388Z,61.87
2018-11-12T00:33:50.529Z,45.67
2018-11-12T00:36:23.214Z,43.27
2018-11-12T00:38:55.759Z,38.27
2018-11-12T00:41:27.653Z,38.83
2018-11-12T00:43:59.634Z,39.67
2018-11-12T00:46:31.021Z,38.80
2018-11-12T00:49:02.851Z,39.93
2018-11-12T00:51:35.474Z,37.87
2018-11-12T00:54:05.998Z,39.77
2018-11-12T00:56:37.279Z,42.50
2018-11-12T00:59:10.567Z,40.80
2018-11-12T01:01:44.374Z,40.07
2018-11-12T01:04:18.056Z,39.33
2018-11-12T01:06:50.399Z,39.40
2018-11-12T01:09:21.646Z,38.60
2018-11-12T01:11:54.369Z,38.67
2018-11-12T01:14:29.550Z,38.70
2018-11-12T01:17:02.021Z,37.97
2018-11-12T01:19:32.679Z,37.00
2018-11-12T01:22:11.544Z,37.90
2018-11-12T01:24:42.695Z,38.97
2018-11-12T01:27:13.509Z,38.80
2018-11-12T01:29:44.112Z,39.57
2018-11-12T01:32:14.238Z,39.77
2018-11-12T01:34:44.765Z,36.83
2018-11-12T01:37:16.012Z,38.73
2018-11-12T01:39:46.564Z,40.47
2018-11-12T01:42:16.334Z,36.60
2018-11-12T01:44:48.103Z,37.60
2018-11-12T01:47:18.198Z,38.07
2018-11-12T01:49:48.414Z,37.67
2018-11-12T01:52:20.206Z,39.87
2018-11-12T01:54:50.802Z,38.27
2018-11-12T01:57:24.333Z,39.60
2018-11-12T01:59:56.985Z,37.63
2018-11-12T02:02:31.789Z,37.47
2018-11-12T02:05:03.610Z,39.17
2018-11-12T02:07:35.986Z,40.30
2018-11-12T02:10:08.702Z,37.40
2018-11-12T02:12:41.754Z,40.57
2018-11-12T02:15:15.565Z,40.67
2018-11-12T02:17:48.134Z,39.13
2018-11-12T02:20:19.359Z,39.03
2018-11-12T02:22:51.974Z,40.00
2018-11-12T02:25:22.846Z,38.73
2018-11-12T02:27:55.998Z,40.13
2018-11-12T02:30:32.502Z,40.10
2018-11-12T02:33:05.544Z,39.17
2018-11-12T02:35:36.630Z,41.23
2018-11-12T02:38:09.708Z,41.23
2018-11-12T02:40:40.539Z,42.70
2018-11-12T02:43:12.273Z,40.57
2018-11-12T02:45:45.924Z,43.03
2018-11-12T02:48:19.925Z,41.23
2018-11-12T02:50:53.280Z,39.93
2018-11-12T02:53:25.611Z,42.83
2018-11-12T02:55:57.925Z,45.07
2018-11-12T02:58:30.148Z,42.67
2018-11-12T03:01:01.616Z,40.67
2018-11-12T03:03:31.587Z,43.23
2018-11-12T03:06:02.058Z,43.10
2018-11-12T03:08:34.115Z,45.27
2018-11-12T03:11:04.627Z,43.73
2018-11-12T03:13:35.829Z,44.47
2018-11-12T03:16:07.738Z,43.87
2018-11-12T03:18:39.005Z,46.07
2018-11-12T03:21:09.285Z,41.37
2018-11-12T03:23:39.868Z,44.20
2018-11-12T03:26:11.201Z,45.57
2018-11-12T03:28:43.108Z,42.33
2018-11-12T03:31:14.751Z,47.47
2018-11-12T03:33:46.645Z,44.77
2018-11-12T03:36:17.999Z,47.80
2018-11-12T03:38:52.362Z,48.90
2018-11-12T03:41:25.906Z,47.27
2018-11-12T03:43:58.815Z,48.50
2018-11-12T03:46:29.069Z,45.60
2018-11-12T03:49:00.056Z,46.70
2018-11-12T03:51:31.068Z,49.50
2018-11-12T03:54:04.593Z,47.20
2018-11-12T03:56:35.785Z,51.13
2018-11-12T03:59:10.060Z,47.70
2018-11-12T04:01:44.876Z,50.60
2018-11-12T04:04:16.658Z,52.73
2018-11-12T04:06:47.249Z,48.40
2018-11-12T04:09:17.992Z,49.70
2018-11-12T04:11:49.946Z,50.13
2018-11-12T04:14:20.892Z,52.30
2018-11-12T04:16:51.413Z,50.40
2018-11-12T04:19:22.410Z,50.80
2018-11-12T04:21:53.561Z,50.03
2018-11-12T04:24:26.742Z,51.87
2018-11-12T04:26:58.274Z,49.83
2018-11-12T04:29:29.347Z,48.00
2018-11-12T04:32:04.840Z,51.03
2018-11-12T04:34:38.145Z,53.60
2018-11-12T04:37:09.407Z,51.10
2018-11-12T04:39:42.388Z,50.70
2018-11-12T04:42:13.930Z,51.50
2018-11-12T04:44:43.524Z,51.20
2018-11-12T04:47:14.070Z,49.57
2018-11-12T04:49:45.638Z,51.17
2018-11-12T04:52:15.408Z,49.23
2018-11-12T04:54:45.525Z,49.27
2018-11-12T04:57:17.157Z,54.60
2018-11-12T04:59:47.964Z,51.87
2018-11-12T05:02:20.080Z,51.17
2018-11-12T05:04:51.244Z,51.67
2018-11-12T05:07:22.834Z,52.07
2018-11-12T05:09:55.097Z,53.80
2018-11-12T05:12:26.153Z,55.20
2018-11-12T05:14:57.699Z,55.57
2018-11-12T05:17:31.077Z,54.10
2018-11-12T05:20:02.467Z,53.97
2018-11-12T05:22:34.852Z,53.80
2018-11-12T05:25:06.969Z,58.77
2018-11-12T05:27:39.332Z,56.03
2018-11-12T05:30:24.017Z,57.90
2018-11-12T05:32:56.287Z,54.73
2018-11-12T05:35:30.983Z,53.20
2018-11-12T05:38:02.988Z,57.20
2018-11-12T05:40:34.856Z,56.90
2018-11-12T05:43:07.213Z,56.57
2018-11-12T05:45:38.898Z,56.70
2018-11-12T05:48:12.480Z,58.13
2018-11-12T05:50:43.723Z,56.63
2018-11-12T05:53:15.949Z,55.53
2018-11-12T05:55:45.850Z,59.33
2018-11-12T05:58:16.915Z,57.53
2018-11-12T06:00:48.984Z,60.30
2018-11-12T06:03:22.347Z,58.50
2018-11-12T06:05:56.511Z,59.47
2018-11-12T06:08:27.761Z,61.37
2018-11-12T06:10:57.319Z,61.83
2018-11-12T06:13:30.336Z,59.00
2018-11-12T06:16:03.482Z,56.77
2018-11-12T06:18:33.531Z,59.17
2018-11-12T06:21:05.841Z,64.80
2018-11-12T06:23:36.750Z,62.80
2018-11-12T06:26:09.217Z,60.07
2018-11-12T06:28:41.559Z,62.73
2018-11-12T06:31:11.427Z,61.20
2018-11-12T06:33:42.496Z,60.47
2018-11-12T06:36:13.834Z,59.17
2018-11-12T06:38:47.358Z,63.53
2018-11-12T06:41:17.905Z,63.13
2018-11-12T06:43:48.177Z,62.20
2018-11-12T06:46:18.892Z,62.67
2018-11-12T06:48:50.166Z,61.07
2018-11-12T06:51:22.312Z,64.53
2018-11-12T06:53:54.632Z,62.67
2018-11-12T06:56:25.226Z,65.40
2018-11-12T06:58:56.901Z,64.50
2018-11-12T07:01:27.666Z,67.30
2018-11-12T07:03:59.451Z,62.67
2018-11-12T07:06:29.585Z,63.13
2018-11-12T07:09:00.822Z,60.67
2018-11-12T07:11:33.221Z,62.03
2018-11-12T07:14:05.116Z,58.30
2018-11-12T07:16:35.737Z,67.33
2018-11-12T07:19:07.337Z,68.37
2018-11-12T07:21:46.702Z,66.37
2018-11-12T07:24:19.823Z,65.23
2018-11-12T07:26:50.566Z,68.90
2018-11-12T07:29:23.211Z,69.10
2018-11-12T07:31:57.566Z,69.97
2018-11-12T07:34:29.136Z,71.33
2018-11-12T07:37:00.765Z,67.50
2018-11-12T07:39:32.555Z,66.07
2018-11-12T07:42:04.403Z,66.10
2018-11-12T07:44:37.703Z,65.50
2018-11-12T07:47:08.961Z,66.23
2018-11-12T07:49:42.419Z,79.70
2018-11-12T07:52:14.269Z,68.23
2018-11-12T07:54:45.101Z,66.10
2018-11-12T07:57:15.215Z,63.57
2018-11-12T07:59:46.618Z,77.93
2018-11-12T08:02:17.203Z,75.37
2018-11-12T08:04:48.559Z,65.90
2018-11-12T08:07:19.346Z,64.63
2018-11-12T08:09:51.451Z,79.87
2018-11-12T08:12:23.912Z,86.40
2018-11-12T08:14:56.868Z,79.57
2018-11-12T08:17:31.608Z,66.97
2018-11-12T08:20:07.452Z,60.97
2018-11-12T08:22:37.315Z,55.40
2018-11-12T08:25:08.884Z,56.63
2018-11-12T08:27:42.314Z,59.20
2018-11-12T08:30:18.933Z,60.87
2018-11-12T08:32:53.808Z,54.47
2018-11-12T08:35:30.208Z,55.77
2018-11-12T08:38:05.518Z,55.50
2018-11-12T08:40:38.148Z,54.17
2018-11-12T08:43:08.778Z,57.60
2018-11-12T08:45:40.885Z,56.40
2018-11-12T08:48:12.210Z,55.37
2018-11-12T08:50:43.046Z,51.33
2018-11-12T08:53:14.217Z,53.47
2018-11-12T08:55:44.392Z,50.40
2018-11-12T08:58:17.543Z,52.17
2018-11-12T09:00:49.285Z,51.40
2018-11-12T09:03:21.121Z,50.60
2018-11-12T09:05:53.321Z,51.10
2018-11-12T09:08:24.663Z,47.93
2018-11-12T09:10:57.662Z,49.73
2018-11-12T09:13:28.571Z,46.60
2018-11-12T09:16:00.444Z,48.50
2018-11-12T09:18:30.972Z,46.43
2018-11-12T09:21:06.559Z,45.33
2018-11-12T09:23:37.223Z,43.13
2018-11-12T09:26:08.389Z,40.37
2018-11-12T09:28:39.031Z,38.77
2018-11-12T09:31:10.587Z,42.07
2018-11-12T09:33:39.975Z,41.17
2018-11-12T09:36:11.304Z,43.93
2018-11-12T09:38:43.382Z,49.17
2018-11-12T09:41:15.238Z,51.70
2018-11-12T09:43:47.253Z,47.67
2018-11-12T09:46:18.229Z,44.00
2018-11-12T09:48:51.798Z,42.73
2018-11-12T09:51:22.113Z,42.43
2018-11-12T09:53:58.468Z,41.53
2018-11-12T09:56:28.504Z,41.10
2018-11-12T09:58:59.692Z,39.10
2018-11-12T10:01:31.162Z,36.73
2018-11-12T10:04:01.799Z,55.27
2018-11-12T10:06:32.874Z,81.83
2018-11-12T10:09:04.817Z,75.80
2018-11-12T10:11:35.813Z,59.73
2018-11-12T10:14:08.732Z,52.07
2018-11-12T10:16:43.078Z,48.97
2018-11-12T10:19:14.326Z,43.40
2018-11-12T10:21:47.487Z,43.30
2018-11-12T10:24:20.081Z,40.30
2018-11-12T10:26:51.954Z,47.10
2018-11-12T10:29:28.358Z,68.20
2018-11-12T10:31:59.522Z,55.03
2018-11-12T10:34:31.236Z,43.57
2018-11-12T10:37:04.708Z,41.10
2018-11-12T10:39:36.702Z,42.33
2018-11-12T10:42:08.664Z,65.57
2018-11-12T10:44:40.026Z,55.50
2018-11-12T10:47:12.023Z,50.13
2018-11-12T10:49:45.057Z,43.20
2018-11-12T10:52:17.932Z,39.13
2018-11-12T10:54:48.654Z,39.97
2018-11-12T10:57:19.339Z,39.20
2018-11-12T10:59:52.543Z,46.43
2018-11-12T11:02:27.555Z,72.77
2018-11-12T11:05:00.221Z,77.80
2018-11-12T11:07:32.835Z,71.63
2018-11-12T11:10:02.778Z,49.70
2018-11-12T11:12:33.627Z,41.63
2018-11-12T11:15:05.005Z,40.90
2018-11-12T11:17:37.912Z,46.47
2018-11-12T11:20:08.127Z,45.20
2018-11-12T11:22:38.036Z,54.97
2018-11-12T11:25:08.693Z,55.80
2018-11-12T11:27:40.384Z,49.17
2018-11-12T11:30:14.581Z,40.30
2018-11-12T11:32:46.871Z,40.80
2018-11-12T11:35:20.424Z,46.00
2018-11-12T11:37:54.308Z,46.00
2018-11-12T11:40:27.557Z,88.47
2018-11-12T11:43:00.442Z,95.03
2018-11-12T11:45:31.895Z,74.87
2018-11-12T11:48:05.020Z,62.73
2018-11-12T11:50:37.512Z,50.90
2018-11-12T11:53:08.033Z,56.47
2018-11-12T11:55:38.270Z,51.80
2018-11-12T11:58:07.844Z,48.60
2018-11-12T12:00:41.669Z,46.77
2018-11-12T12:03:14.640Z,55.70
2018-11-12T12:05:47.891Z,47.97
2018-11-12T12:08:20.189Z,45.87
2018-11-12T12:10:51.425Z,41.37
2018-11-12T12:13:23.149Z,39.50
2018-11-12T12:15:55.510Z,42.13
2018-11-12T12:18:26.865Z,50.80
2018-11-12T12:20:57.474Z,62.53
2018-11-12T12:23:29.554Z,53.33
2018-11-12T12:26:00.406Z,47.17
2018-11-12T12:28:31.832Z,42.00
2018-11-12T12:31:07.780Z,38.57
2018-11-12T12:33:44.352Z,39.50
2018-11-12T12:36:15.227Z,66.23
2018-11-12T12:38:49.610Z,68.90
2018-11-12T12:41:24.100Z,57.20
2018-11-12T12:43:55.774Z,53.87
2018-11-12T12:46:33.161Z,45.90
2018-11-12T12:49:04.286Z,43.20
2018-11-12T12:51:35.439Z,40.37
2018-11-12T12:54:06.506Z,36.07
2018-11-12T12:56:37.308Z,37.47
2018-11-12T12:59:09.740Z,37.90
2018-11-12T13:01:42.492Z,37.70
2018-11-12T13:04:13.487Z,38.90
2018-11-12T13:06:44.982Z,38.00
2018-11-12T13:09:17.905Z,37.27
2018-11-12T13:11:50.088Z,37.77
2018-11-12T13:14:22.597Z,36.00
2018-11-12T13:16:54.477Z,44.17
2018-11-12T13:19:26.668Z,46.10
2018-11-12T13:21:57.598Z,45.83
2018-11-12T13:24:29.268Z,42.33
2018-11-12T13:26:59.849Z,38.00
2018-11-12T13:29:38.335Z,42.57
2018-11-12T13:32:08.722Z,48.37
2018-11-12T13:34:39.105Z,42.00
2018-11-12T13:37:09.726Z,37.23
2018-11-12T13:39:39.603Z,36.90
2018-11-12T13:42:10.517Z,36.13
2018-11-12T13:44:42.983Z,34.93
2018-11-12T13:47:15.821Z,36.53
2018-11-12T13:49:47.624Z,35.30
2018-11-12T13:52:18.097Z,37.83
2018-11-12T13:54:48.847Z,35.37
2018-11-12T13:57:19.691Z,34.20
2018-11-12T13:59:49.496Z,35.47
2018-11-12T14:02:19.760Z,34.90
2018-11-12T14:04:50.592Z,32.90
2018-11-12T14:07:20.670Z,34.57
2018-11-12T14:09:51.449Z,35.33
2018-11-12T14:12:21.515Z,34.47
2018-11-12T14:14:52.052Z,32.77
2018-11-12T14:17:22.382Z,30.77
2018-11-12T14:19:52.671Z,31.80
2018-11-12T14:22:23.586Z,31.37
2018-11-12T14:24:56.775Z,32.33
2018-11-12T14:27:27.675Z,32.03
2018-11-12T14:29:57.552Z,30.63
2018-11-12T14:32:31.276Z,32.17
2018-11-12T14:35:04.228Z,32.30
2018-11-12T14:37:36.093Z,35.57
2018-11-12T14:40:10.512Z,34.37
2018-11-12T14:42:43.066Z,28.43
2018-11-12T14:45:16.159Z,29.10
2018-11-12T14:47:47.540Z,30.47
2018-11-12T14:50:20.821Z,29.20
2018-11-12T14:52:50.645Z,27.70
2018-11-12T14:55:20.921Z,29.60
2018-11-12T14:57:51.935Z,29.97
2018-11-12T15:00:25.395Z,27.53
2018-11-12T15:02:56.261Z,30.40
2018-11-12T15:05:34.121Z,30.50
2018-11-12T15:08:06.990Z,28.93
2018-11-12T15:10:40.712Z,55.60
2018-11-12T15:13:11.178Z,35.10
2018-11-12T15:15:43.046Z,34.13
2018-11-12T15:18:14.963Z,30.90
2018-11-12T15:20:47.969Z,28.73
2018-11-12T15:23:20.154Z,28.60
2018-11-12T15:25:51.598Z,29.97
2018-11-12T15:28:22.311Z,32.87
2018-11-12T15:30:52.483Z,29.20
2018-11-12T15:33:22.204Z,31.30
2018-11-12T15:35:54.541Z,34.43
2018-11-12T15:38:24.382Z,33.73
2018-11-12T15:40:55.716Z,32.00
2018-11-12T15:43:29.051Z,35.53
2018-11-12T15:46:01.660Z,40.17
2018-11-12T15:48:36.373Z,35.83
2018-11-12T15:51:11.397Z,33.50
2018-11-12T15:53:43.120Z,33.07
2018-11-12T15:56:15.656Z,32.57
2018-11-12T15:58:49.285Z,32.57
2018-11-12T16:01:20.648Z,32.60
2018-11-12T16:03:54.008Z,31.53
2018-11-12T16:06:30.624Z,32.40
2018-11-12T16:15:56.782Z,30.33
2018-11-12T16:18:29.852Z,31.20
2018-11-12T16:20:59.972Z,31.53
2018-11-12T16:23:31.960Z,30.50
2018-11-12T16:26:03.898Z,31.37
2018-11-12T16:28:35.071Z,30.60
2018-11-12T16:31:04.965Z,33.17
2018-11-12T16:33:35.568Z,33.03
2018-11-12T16:36:06.291Z,32.03
2018-11-12T16:38:36.631Z,30.97
2018-11-12T16:41:07.451Z,30.00
2018-11-12T16:43:37.294Z,35.30
2018-11-12T16:46:09.094Z,36.90
2018-11-12T16:48:38.883Z,32.57
2018-11-12T16:51:09.193Z,33.03
2018-11-12T16:53:39.448Z,35.83
2018-11-12T16:56:10.193Z,34.20
2018-11-12T16:58:40.767Z,30.30
2018-11-12T17:01:11.810Z,32.07
2018-11-12T17:03:41.420Z,32.70
2018-11-12T17:06:12.137Z,30.70
2018-11-12T17:08:42.066Z,28.73
2018-11-12T17:11:12.826Z,30.97
2018-11-12T17:13:43.089Z,28.33
2018-11-12T17:16:14.074Z,31.60
2018-11-12T17:18:44.036Z,32.80
2018-11-12T17:21:14.927Z,29.53
2018-11-12T17:23:44.876Z,29.93
2018-11-12T17:26:20.013Z,29.70
2018-11-12T17:28:52.846Z,30.13
2018-11-12T17:31:23.558Z,30.63
2018-11-12T17:33:55.542Z,29.40
2018-11-12T17:36:26.780Z,29.07
2018-11-12T17:38:56.543Z,30.50
2018-11-12T17:41:30.361Z,29.30
2018-11-12T17:44:01.121Z,28.53
2018-11-12T17:46:31.497Z,28.87
2018-11-12T17:49:04.858Z,29.47
2018-11-12T17:51:34.507Z,30.40
2018-11-12T17:54:06.918Z,31.27
2018-11-12T17:56:37.312Z,29.83
2018-11-12T17:59:07.584Z,28.97
2018-11-12T18:01:38.993Z,31.20
2018-11-12T18:04:08.834Z,28.13
2018-11-12T18:06:39.307Z,31.60
2018-11-12T18:09:11.378Z,30.93
2018-11-12T18:11:44.777Z,32.40
2018-11-12T18:14:15.283Z,31.20
2018-11-12T18:16:48.274Z,31.60
2018-11-12T18:19:21.649Z,31.70
2018-11-12T18:21:52.715Z,38.97
2018-11-12T18:24:24.721Z,42.73
2018-11-12T18:26:57.784Z,43.40
2018-11-12T18:29:29.442Z,40.57
2018-11-12T18:32:00.531Z,35.37
2018-11-12T18:34:30.252Z,37.23
2018-11-12T18:37:00.272Z,39.40
2018-11-12T18:39:29.817Z,33.87
2018-11-12T18:42:01.205Z,32.50
2018-11-12T18:44:31.622Z,33.07
2018-11-12T18:47:02.008Z,34.67
2018-11-12T18:49:32.278Z,31.63
2018-11-12T18:52:02.407Z,32.90
2018-11-12T18:54:32.630Z,32.50
2018-11-12T18:57:03.040Z,33.03
2018-11-12T18:59:33.677Z,33.57
2018-11-12T19:02:04.547Z,33.67
2018-11-12T19:04:34.391Z,32.07
2018-11-12T19:07:04.997Z,33.63
2018-11-12T19:09:37.072Z,33.13
2018-11-12T19:12:11.525Z,32.37
2018-11-12T19:14:43.937Z,31.43
2018-11-12T19:17:16.684Z,33.63
2018-11-12T19:19:49.019Z,33.80
2018-11-12T19:22:20.058Z,35.47
2018-11-12T19:24:49.995Z,35.47
2018-11-12T19:27:21.031Z,36.00
2018-11-12T19:29:51.947Z,36.43
2018-11-12T19:32:21.999Z,37.30
2018-11-12T19:34:53.035Z,37.57
2018-11-12T19:37:23.827Z,36.00
2018-11-12T19:39:54.175Z,36.97
2018-11-12T19:42:24.160Z,38.20
2018-11-12T19:44:56.117Z,35.70
2018-11-12T19:47:32.713Z,37.20
2018-11-12T19:50:04.721Z,36.50
2018-11-12T19:52:35.255Z,35.87
2018-11-12T19:55:06.939Z,37.10
2018-11-12T19:57:39.232Z,35.33
2018-11-12T20:00:15.322Z,38.67
2018-11-12T20:02:46.991Z,34.50
2018-11-12T20:05:16.892Z,35.10
2018-11-12T20:07:47.093Z,39.70
2018-11-12T20:10:19.098Z,34.27
2018-11-12T20:12:49.666Z,35.87
2018-11-12T20:15:22.906Z,35.80
2018-11-12T20:17:55.970Z,37.60
2018-11-12T20:20:30.731Z,39.73
2018-11-12T20:23:02.519Z,34.87
2018-11-12T20:25:32.264Z,34.97
2018-11-12T20:28:03.169Z,33.70
2018-11-12T20:30:35.506Z,35.30
2018-11-12T20:33:06.826Z,37.53
2018-11-12T20:35:37.488Z,33.80
2018-11-12T20:38:07.971Z,35.37
2018-11-12T20:40:38.633Z,35.30
2018-11-12T20:43:09.745Z,35.60
2018-11-12T20:45:39.336Z,34.80
2018-11-12T20:48:14.237Z,33.77
2018-11-12T20:50:47.704Z,36.30
2018-11-12T20:53:17.903Z,33.50
2018-11-12T20:55:51.744Z,34.70
2018-11-12T20:58:21.627Z,36.73
2018-11-12T21:00:51.464Z,36.03
2018-11-12T21:03:22.946Z,34.60
2018-11-12T21:05:54.887Z,30.63
2018-11-12T21:08:27.386Z,31.90
2018-11-12T21:10:57.685Z,32.47
2018-11-12T21:13:30.256Z,32.70
2018-11-12T21:16:00.129Z,31.97
2018-11-12T21:18:31.009Z,33.90
2018-11-12T21:21:01.778Z,34.63
2018-11-12T21:23:34.229Z,35.97
2018-11-12T21:26:06.607Z,36.33
2018-11-12T21:28:36.561Z,33.33
2018-11-12T21:31:13.380Z,35.53
2018-11-12T21:33:43.925Z,33.67
2018-11-12T21:36:14.703Z,32.90
2018-11-12T21:38:45.765Z,32.23
2018-11-12T21:41:16.117Z,31.23
2018-11-12T21:43:51.815Z,29.23
2018-11-12T21:46:23.181Z,32.10
2018-11-12T21:48:53.958Z,31.17
2018-11-12T21:51:23.651Z,30.23
2018-11-12T21:53:53.857Z,33.57
2018-11-12T21:56:24.811Z,30.63
2018-11-12T21:58:54.936Z,33.07
2018-11-12T22:01:26.249Z,31.60
2018-11-12T22:03:56.670Z,38.80
2018-11-12T22:06:26.965Z,37.83
2018-11-12T22:08:58.058Z,34.17
2018-11-12T22:11:29.574Z,33.50
2018-11-12T22:14:03.376Z,32.10
2018-11-12T22:16:36.027Z,34.10
2018-11-12T22:19:07.108Z,34.47
2018-11-12T22:21:38.169Z,33.07
2018-11-12T22:24:07.908Z,31.33
2018-11-12T22:26:38.928Z,33.00
2018-11-12T22:29:08.996Z,32.30
2018-11-12T22:31:40.905Z,33.00
2018-11-12T22:34:11.186Z,31.97
2018-11-12T22:36:41.827Z,30.50
2018-11-12T22:39:14.194Z,34.50
2018-11-12T22:41:44.167Z,29.87
2018-11-12T22:44:14.168Z,30.57
2018-11-12T22:46:46.598Z,32.87
2018-11-12T22:49:20.018Z,33.33
2018-11-12T22:51:52.778Z,31.20
2018-11-12T22:54:22.904Z,31.23
2018-11-12T22:56:52.899Z,31.40
2018-11-12T22:59:23.311Z,32.90
2018-11-12T23:01:53.566Z,30.50
2018-11-12T23:04:25.273Z,28.67
2018-11-12T23:06:55.019Z,30.40
2018-11-12T23:09:25.844Z,32.07
2018-11-12T23:11:56.261Z,31.90
2018-11-12T23:14:26.781Z,33.40
2018-11-12T23:16:57.258Z,32.50
2018-11-12T23:19:27.664Z,30.07
2018-11-12T23:21:58.935Z,31.10
2018-11-12T23:24:30.229Z,30.47
2018-11-12T23:27:01.480Z,30.87
2018-11-12T23:29:33.121Z,31.80
2018-11-12T23:32:05.345Z,34.40
2018-11-12T23:34:37.263Z,32.60
2018-11-12T23:37:08.847Z,32.23
2018-11-12T23:39:42.300Z,32.10
2018-11-12T23:42:13.204Z,29.00
2018-11-12T23:44:43.570Z,29.87
2018-11-12T23:47:13.412Z,31.07
2018-11-12T23:49:44.566Z,30.57
2018-11-12T23:52:15.054Z,31.50
2018-11-12T23:54:45.497Z,30.27
2018-11-12T23:57:15.220Z,30.73
2018-11-12T23:59:46.561Z,29.40
